グアダラハラ の空港の天気 - METARとTAF

ドン・ミゲル・イダルゴ・イ・コスティージャ国際空港 ( MMGL / GDL ) - メキシコ ハリスコ州グアダラハラ
飛行場実況気象(Metar)
観測時間08/11 02:08 CDT (08/11 07:08 UTC)
風向・風速北東 2m/s
視程9650m
天気現象
全天の8割程度の雲 雲底高度 460m
全天を覆う雲 雲底高度 2440m
気温18℃
湿度88%
気圧1023hPa
METARMMGL 110708Z RTD 04004KT 6SM BKN015 OVC080 18/16 A3020 RMK 8/57/
過去の天気等 Google飛行場航空写真 Wunderground天気予報

過去48時間のMETAR

飛行場予報(TAF)
発表時間: 8/10 23:06 CDT (8/11 04:06 UTC)
予報対象時間: 11日1時 CDT ~ 12日7時 CDT
風向・風速静穏
視程10km以上
全天の8割程度の雲 雲底高度 460m
全天を覆う雲 雲底高度 2440m
11日11時 CDT から
風向・風速東 3m/s
視程10km以上
全天の4割程度の雲 雲底高度 610m
全天の8割程度の雲 雲底高度 2440m
全天の8割程度の雲 雲底高度 6100m
11日16時 CDT から
風向・風速東 5m/s
視程10km以上
全天の8割程度の積乱雲 雲底高度 610m
全天の8割程度の雲 雲底高度 2440m
全天を覆う雲 雲底高度 6100m
11日18時 CDT ~ 11日22時 CDT に一時的に
視程6440m
天気現象雷雨
全天を覆う積乱雲 雲底高度 460m
11日22時 CDT から
風向・風速南南西 3m/s
視程10km以上
全天の8割程度の雲 雲底高度 610m
全天を覆う雲 雲底高度 2440m
TAF MMGL 110406Z 1106/1212 00000KT P6SM BKN015 OVC080 TX28/1121Z TN17/1110Z
FM111600 10005KT P6SM SCT020 BKN080 BKN200
FM112100 10010KT P6SM BKN020CB BKN080 OVC200
TEMPO 1123/1203 4SM TSRA OVC015CB
FM120300 20005KT P6SM BKN020 OVC080